Time;durP1;ratioP1;P1;durP2;ratioP2;P2;SDS_P1;SDS_P2;PMS_P1;PMS_P2;Temp;Humidity;BMP_temperature;BMP_pressure;BME280_temperature;BME280_humidity;BME280_pressure;Samples;Min_cycle;Max_cycle;Signal;HPM_P1;HPM_P2
2022/10/27 03:00:57;;;;;;;1.00;0.90;;;20.70;52.90;;;;;;5595821;23;45836;-72
2022/10/27 03:03:23;;;;;;;1.25;1.02;;;20.60;52.80;;;;;;4850607;29;45012;-67
2022/10/27 03:05:49;;;;;;;1.00;0.90;;;20.70;52.90;;;;;;4874757;29;45193;-71
2022/10/27 03:08:14;;;;;;;1.10;0.90;;;20.70;52.80;;;;;;4854540;29;45641;-70
2022/10/27 03:10:40;;;;;;;1.30;0.88;;;20.70;52.90;;;;;;4857148;29;45288;-70
2022/10/27 03:13:05;;;;;;;1.02;0.88;;;20.60;52.80;;;;;;4845132;29;45288;-70
2022/10/27 03:15:31;;;;;;;0.93;0.85;;;20.60;52.80;;;;;;4860224;29;45172;-68
2022/10/27 03:17:57;;;;;;;1.05;1.00;;;20.70;52.90;;;;;;4875605;29;45868;-68
2022/10/27 03:20:22;;;;;;;1.00;0.90;;;20.60;52.80;;;;;;4851471;29;45918;-74
2022/10/27 03:22:48;;;;;;;2.92;1.00;;;20.60;52.80;;;;;;4863073;29;45392;-69
2022/10/27 03:25:14;;;;;;;1.25;1.08;;;20.60;52.80;;;;;;4866977;29;45545;-69
2022/10/27 03:27:41;;;;;;;1.40;1.00;;;20.60;52.80;;;;;;4857380;29;45794;-69
2022/10/27 03:30:08;;;;;;;2.90;1.10;;;20.60;52.80;;;;;;4868046;29;46268;-70
2022/10/27 03:32:33;;;;;;;1.02;0.90;;;20.60;52.80;;;;;;4852051;29;45518;-70
2022/10/27 03:34:59;;;;;;;1.35;1.10;;;20.60;52.80;;;;;;4864297;29;45512;-68
2022/10/27 03:37:24;;;;;;;0.98;0.85;;;20.60;52.80;;;;;;4876810;29;45539;-70
2022/10/27 03:39:50;;;;;;;1.60;1.20;;;20.60;52.80;;;;;;4872950;29;46013;-70
2022/10/27 03:42:15;;;;;;;1.52;1.17;;;20.60;52.80;;;;;;4873635;29;44993;-73
2022/10/27 03:44:41;;;;;;;1.30;0.98;;;20.60;52.80;;;;;;4877458;29;45267;-69
2022/10/27 03:47:06;;;;;;;1.35;1.10;;;20.60;52.80;;;;;;4865703;29;45846;-73
2022/10/27 03:49:32;;;;;;;1.60;1.17;;;20.60;52.90;;;;;;4875895;29;45183;-68
2022/10/27 03:51:57;;;;;;;0.95;0.85;;;20.60;52.80;;;;;;4865120;29;45284;-70
2022/10/27 03:54:23;;;;;;;1.08;0.90;;;20.60;52.90;;;;;;4875501;29;45672;-67
2022/10/27 03:56:48;;;;;;;1.15;1.05;;;20.60;52.80;;;;;;4878046;29;45078;-69
2022/10/27 03:59:14;;;;;;;1.17;1.00;;;20.60;52.80;;;;;;4880419;29;45326;-71
2022/10/27 04:01:39;;;;;;;1.05;0.75;;;20.60;52.80;;;;;;4867583;29;45168;-71
2022/10/27 04:04:05;;;;;;;1.30;1.00;;;20.60;52.90;;;;;;4868741;29;44761;-71
2022/10/27 04:06:30;;;;;;;1.48;1.20;;;20.50;52.80;;;;;;4873951;29;46250;-70
2022/10/27 04:08:56;;;;;;;1.98;1.15;;;20.60;52.80;;;;;;4877361;29;46582;-69
2022/10/27 04:11:22;;;;;;;1.40;1.05;;;20.50;52.80;;;;;;4877337;29;45196;-69
2022/10/27 04:13:47;;;;;;;1.30;1.20;;;20.50;52.80;;;;;;4872810;29;45284;-69
2022/10/27 04:16:13;;;;;;;0.95;0.90;;;20.50;52.80;;;;;;4873001;29;45889;-69
2022/10/27 04:18:38;;;;;;;1.00;0.90;;;20.50;52.80;;;;;;4874374;29;47033;-72
2022/10/27 04:21:04;;;;;;;1.70;1.20;;;20.50;52.80;;;;;;4871496;29;44932;-71
2022/10/27 04:23:30;;;;;;;1.10;0.90;;;20.50;52.80;;;;;;4865624;29;44905;-68
2022/10/27 04:25:55;;;;;;;0.98;0.82;;;20.50;52.80;;;;;;4872798;29;45262;-69
2022/10/27 04:28:21;;;;;;;1.35;0.95;;;20.50;52.80;;;;;;4873645;29;46104;-70
2022/10/27 04:30:47;;;;;;;1.13;1.00;;;20.50;52.90;;;;;;4876632;29;44712;-70
2022/10/27 04:33:13;;;;;;;1.10;1.00;;;20.50;52.80;;;;;;4871545;29;45207;-74
2022/10/27 04:35:38;;;;;;;1.30;1.20;;;20.50;52.80;;;;;;4870374;29;45223;-69
2022/10/27 04:38:04;;;;;;;1.00;0.90;;;20.50;52.80;;;;;;4863523;29;45281;-71
2022/10/27 04:40:29;;;;;;;1.50;1.20;;;20.50;52.80;;;;;;4876648;29;45218;-68
2022/10/27 04:42:55;;;;;;;1.25;1.00;;;20.50;52.90;;;;;;4871869;29;45057;-70
2022/10/27 04:45:20;;;;;;;1.40;0.95;;;20.50;52.90;;;;;;4865702;29;45123;-69
2022/10/27 04:47:46;;;;;;;1.23;1.13;;;20.50;52.90;;;;;;4872649;29;45263;-66
2022/10/27 04:50:15;;;;;;;1.45;0.93;;;20.50;52.90;;;;;;4872585;29;45221;-69
2022/10/27 04:52:40;;;;;;;1.70;1.27;;;20.50;52.90;;;;;;4859103;29;45144;-69
2022/10/27 04:55:07;;;;;;;1.77;1.05;;;20.50;52.90;;;;;;4868324;29;45231;-71
2022/10/27 04:57:32;;;;;;;1.17;0.90;;;20.50;52.90;;;;;;4877858;29;45956;-69
2022/10/27 04:59:58;;;;;;;1.63;1.13;;;20.40;52.80;;;;;;4877293;29;45039;-72
2022/10/27 05:02:23;;;;;;;1.55;1.02;;;20.40;52.80;;;;;;4876397;29;45553;-72
2022/10/27 05:04:49;;;;;;;1.20;1.10;;;20.50;52.80;;;;;;4883310;29;45765;-71
2022/10/27 05:07:15;;;;;;;1.52;1.10;;;20.40;52.80;;;;;;4879567;29;44881;-67
2022/10/27 05:09:40;;;;;;;1.00;0.93;;;20.40;52.80;;;;;;4878313;29;45114;-69
2022/10/27 05:12:06;;;;;;;1.40;0.80;;;20.40;52.80;;;;;;4879584;29;45273;-70
2022/10/27 05:14:31;;;;;;;3.03;1.05;;;20.40;52.80;;;;;;4853272;29;45605;-69
2022/10/27 05:16:57;;;;;;;1.33;1.23;;;20.40;52.90;;;;;;4872132;29;45376;-75
2022/10/27 05:19:22;;;;;;;1.35;1.10;;;20.40;52.90;;;;;;4879949;29;44913;-71
2022/10/27 05:21:48;;;;;;;2.25;1.20;;;20.40;52.80;;;;;;4873735;29;45451;-70
2022/10/27 05:24:14;;;;;;;1.17;1.05;;;20.40;52.90;;;;;;4873051;29;45474;-71
2022/10/27 05:26:40;;;;;;;0.90;0.75;;;20.40;52.80;;;;;;4873969;29;46213;-69
2022/10/27 05:29:06;;;;;;;1.95;1.10;;;20.40;53.30;;;;;;4870004;29;44999;-69
2022/10/27 05:31:31;;;;;;;1.27;1.17;;;20.40;52.80;;;;;;4871543;29;45114;-68
2022/10/27 05:33:57;;;;;;;1.38;1.10;;;20.40;52.90;;;;;;4855280;29;45635;-70
2022/10/27 05:36:22;;;;;;;1.33;1.00;;;20.40;52.80;;;;;;4875470;29;45596;-70
2022/10/27 05:38:48;;;;;;;1.25;0.85;;;20.40;52.80;;;;;;4878948;29;45447;-68
2022/10/27 05:41:13;;;;;;;1.13;1.00;;;20.30;52.80;;;;;;4856882;29;45923;-69
2022/10/27 05:43:40;;;;;;;1.17;0.98;;;20.30;52.80;;;;;;4862391;29;45994;-73
2022/10/27 05:46:06;;;;;;;1.35;1.20;;;20.40;52.80;;;;;;4877418;29;45549;-70
2022/10/27 05:48:32;;;;;;;2.33;1.17;;;20.30;52.80;;;;;;4871976;29;45459;-69
2022/10/27 05:50:57;;;;;;;1.17;1.08;;;20.40;52.80;;;;;;4875172;29;45208;-70
2022/10/27 05:53:23;;;;;;;1.13;0.80;;;20.30;52.80;;;;;;4876610;29;45748;-67
2022/10/27 05:55:52;;;;;;;1.13;1.00;;;20.30;52.80;;;;;;4880958;29;45455;-72
2022/10/27 05:58:17;;;;;;;1.58;0.98;;;20.30;52.80;;;;;;4865945;29;44937;-69
2022/10/27 06:00:43;;;;;;;1.75;1.40;;;20.30;52.80;;;;;;4875175;29;45432;-68
2022/10/27 06:03:18;;;;;;;1.30;1.00;;;20.30;52.80;;;;;;4876287;29;44827;-70
2022/10/27 06:05:43;;;;;;;1.30;1.02;;;20.30;52.80;;;;;;4871171;29;46468;-70
2022/10/27 06:08:09;;;;;;;3.08;1.55;;;20.30;52.80;;;;;;4876886;29;45556;-62
2022/10/27 06:10:34;;;;;;;5.28;2.35;;;20.30;52.40;;;;;;4880357;29;44940;-62
2022/10/27 06:13:01;;;;;;;5.63;2.80;;;20.30;51.60;;;;;;4878843;29;45493;-61
2022/10/27 06:15:28;;;;;;;7.70;3.25;;;20.20;51.10;;;;;;4874208;29;46046;-60
2022/10/27 06:17:53;;;;;;;6.85;3.42;;;20.20;50.70;;;;;;4879608;29;45439;-64
2022/10/27 06:20:19;;;;;;;5.43;3.42;;;20.10;50.50;;;;;;4876358;29;45458;-64
2022/10/27 06:22:47;;;;;;;6.88;3.05;;;20.00;50.40;;;;;;4880297;29;45476;-62
2022/10/27 06:25:13;;;;;;;8.95;3.47;;;19.90;50.60;;;;;;4868883;29;46153;-62
2022/10/27 06:27:38;;;;;;;6.35;3.22;;;19.80;50.10;;;;;;4877755;29;45488;-64
2022/10/27 06:30:05;;;;;;;7.82;3.20;;;19.80;49.90;;;;;;4878168;29;45509;-62
2022/10/27 06:32:30;;;;;;;7.00;3.58;;;19.70;49.80;;;;;;4873152;29;45390;-62
2022/10/27 06:34:56;;;;;;;10.00;3.70;;;19.70;49.90;;;;;;4883183;29;46171;-63
2022/10/27 06:37:21;;;;;;;6.55;3.65;;;19.60;49.90;;;;;;4877945;29;45006;-63
2022/10/27 06:39:47;;;;;;;6.72;3.22;;;19.60;49.90;;;;;;4877049;29;45482;-63
2022/10/27 06:42:12;;;;;;;7.68;3.80;;;19.50;49.90;;;;;;4871700;29;45475;-63
2022/10/27 06:44:38;;;;;;;8.40;3.40;;;19.50;50.00;;;;;;4870849;29;46442;-63
2022/10/27 06:47:03;;;;;;;6.13;3.78;;;19.50;50.10;;;;;;4875214;29;45175;-62
2022/10/27 06:49:29;;;;;;;8.88;3.50;;;19.50;50.20;;;;;;4873241;29;44760;-64
2022/10/27 06:51:54;;;;;;;4.82;3.20;;;19.50;50.30;;;;;;4868595;29;45616;-62
2022/10/27 06:54:20;;;;;;;8.25;3.40;;;19.30;50.40;;;;;;4878578;29;45217;-61
2022/10/27 06:56:46;;;;;;;4.80;3.33;;;19.30;50.70;;;;;;4872523;29;45232;-63
2022/10/27 06:59:11;;;;;;;11.48;4.03;;;19.30;51.00;;;;;;4871038;29;45017;-62
2022/10/27 07:01:37;;;;;;;6.03;2.97;;;19.20;51.30;;;;;;4875735;29;45660;-65
2022/10/27 07:04:03;;;;;;;8.30;3.55;;;19.20;51.70;;;;;;4870613;29;46621;-64
2022/10/27 07:06:28;;;;;;;7.72;2.95;;;19.10;52.00;;;;;;4877276;29;45567;-64
2022/10/27 07:08:54;;;;;;;5.95;2.83;;;19.10;52.20;;;;;;4878120;29;44946;-63
2022/10/27 07:11:20;;;;;;;5.22;2.42;;;19.10;52.40;;;;;;4876114;29;45559;-63
2022/10/27 07:13:45;;;;;;;6.85;3.13;;;19.10;52.40;;;;;;4875896;29;46148;-63
2022/10/27 07:16:11;;;;;;;7.15;2.65;;;19.10;52.50;;;;;;4869784;29;46166;-63
2022/10/27 07:18:37;;;;;;;8.70;2.90;;;19.20;52.40;;;;;;4876470;29;45406;-64
2022/10/27 07:21:04;;;;;;;7.43;2.80;;;19.40;52.20;;;;;;4870172;29;44774;-64
2022/10/27 07:23:29;;;;;;;5.78;2.63;;;19.60;51.90;;;;;;4877925;29;46680;-64
2022/10/27 07:25:55;;;;;;;5.03;2.65;;;19.90;52.20;;;;;;4876402;29;45425;-63
2022/10/27 07:28:20;;;;;;;4.30;2.15;;;20.10;51.30;;;;;;4875551;29;45350;-63
2022/10/27 07:30:47;;;;;;;5.72;2.70;;;20.30;51.00;;;;;;4877054;29;45803;-62
2022/10/27 07:33:12;;;;;;;3.53;2.38;;;20.50;50.80;;;;;;4875536;29;45930;-63
2022/10/27 07:35:38;;;;;;;4.47;2.10;;;20.60;50.60;;;;;;4875010;29;45470;-66
2022/10/27 07:38:03;;;;;;;4.30;2.22;;;20.80;50.60;;;;;;4870483;29;45345;-64
2022/10/27 07:40:29;;;;;;;4.05;2.30;;;20.80;50.40;;;;;;4871988;29;45508;-65
2022/10/27 07:42:58;;;;;;;5.28;1.95;;;21.00;50.40;;;;;;4869073;29;45969;-67
2022/10/27 07:45:25;;;;;;;2.92;2.03;;;21.10;50.30;;;;;;4872074;29;45439;-65
2022/10/27 07:47:51;;;;;;;3.28;2.17;;;21.20;50.30;;;;;;4875965;29;45567;-64
2022/10/27 07:50:18;;;;;;;3.72;1.98;;;21.30;50.20;;;;;;4865899;29;44761;-67
2022/10/27 07:52:45;;;;;;;2.80;1.90;;;21.40;50.20;;;;;;4872598;29;46264;-67
2022/10/27 07:55:11;;;;;;;2.25;1.60;;;21.50;50.10;;;;;;4868624;29;45389;-70
2022/10/27 07:57:36;;;;;;;2.60;1.77;;;21.60;50.10;;;;;;4881675;29;44741;-66
2022/10/27 08:00:04;;;;;;;4.95;2.30;;;21.80;50.00;;;;;;4876953;29;45410;-67
2022/10/27 08:02:30;;;;;;;2.70;1.65;;;21.90;50.00;;;;;;4871429;29;45053;-67
2022/10/27 08:04:56;;;;;;;3.67;2.20;;;22.00;49.90;;;;;;4875112;29;45408;-68
2022/10/27 08:07:22;;;;;;;2.70;1.75;;;22.10;49.80;;;;;;4877241;29;45402;-67
2022/10/27 08:09:48;;;;;;;2.35;1.65;;;22.20;49.70;;;;;;4878127;29;45334;-68
2022/10/27 08:12:13;;;;;;;4.20;1.98;;;22.30;49.60;;;;;;4868944;29;45860;-66
2022/10/27 08:14:39;;;;;;;2.83;1.73;;;22.40;49.50;;;;;;4871656;29;45344;-66
2022/10/27 08:17:04;;;;;;;3.63;1.80;;;22.50;49.40;;;;;;4871046;29;45910;-66
2022/10/27 08:19:30;;;;;;;3.60;1.60;;;22.60;49.40;;;;;;4878334;29;44933;-71
2022/10/27 08:21:55;;;;;;;3.22;1.95;;;22.70;49.30;;;;;;4872028;29;46187;-66
2022/10/27 08:24:21;;;;;;;4.15;1.80;;;22.80;49.30;;;;;;4865140;29;45457;-69
2022/10/27 08:26:46;;;;;;;3.65;1.80;;;22.90;49.20;;;;;;4878062;29;44964;-68
2022/10/27 08:29:12;;;;;;;3.15;2.03;;;22.90;49.10;;;;;;4880547;29;45618;-67
2022/10/27 08:31:37;;;;;;;2.00;1.42;;;23.00;49.10;;;;;;4878448;29;45827;-66
2022/10/27 08:34:03;;;;;;;2.03;1.60;;;23.10;49.00;;;;;;4881052;29;45107;-64
2022/10/27 08:36:28;;;;;;;4.40;1.73;;;23.20;49.00;;;;;;4875690;29;45535;-65
2022/10/27 08:38:54;;;;;;;2.38;1.60;;;23.30;48.90;;;;;;4878195;29;47049;-66
2022/10/27 08:41:24;;;;;;;3.83;1.50;;;23.30;48.70;;;;;;4880444;29;45630;-66
2022/10/27 08:44:21;;;;;;;3.03;1.48;;;23.40;48.60;;;;;;4876339;29;45302;-64
2022/10/27 08:46:53;;;;;;;3.85;1.50;;;23.50;48.30;;;;;;4876416;29;44657;-66
2022/10/27 08:49:26;;;;;;;2.90;1.42;;;23.60;48.40;;;;;;4876475;29;45374;-65
2022/10/27 08:51:53;;;;;;;3.13;1.30;;;23.60;48.30;;;;;;4880350;29;46221;-65
2022/10/27 08:54:20;;;;;;;1.88;1.42;;;23.70;48.40;;;;;;4874505;29;45373;-66
2022/10/27 08:56:45;;;;;;;5.13;1.60;;;23.80;48.30;;;;;;4870277;29;45701;-63
2022/10/27 08:59:17;;;;;;;1.95;1.42;;;23.80;48.20;;;;;;4864180;29;44901;-64
2022/10/27 09:01:48;;;;;;;3.33;1.50;;;23.80;48.10;;;;;;4877900;29;46007;-65
2022/10/27 09:04:29;;;;;;;2.42;1.15;;;23.90;48.10;;;;;;4870573;29;45567;-67
2022/10/27 09:07:32;;;;;;;3.83;1.45;;;24.00;48.10;;;;;;4877527;29;45371;-64
2022/10/27 09:10:10;;;;;;;2.03;1.35;;;24.00;47.60;;;;;;4874813;29;45263;-65
2022/10/27 09:13:06;;;;;;;2.65;1.45;;;24.10;48.00;;;;;;4876639;29;45409;-67
2022/10/27 09:15:39;;;;;;;2.40;1.50;;;24.20;47.80;;;;;;4857747;29;45275;-69
2022/10/27 09:18:14;;;;;;;;;;;24.20;47.80;;;;;;4882751;29;45363;-69
2022/10/27 09:20:48;;;;;;;5.03;1.38;;;24.30;47.50;;;;;;4877039;29;44733;-69
2022/10/27 09:23:16;;;;;;;2.97;1.20;;;24.30;47.60;;;;;;4856319;29;45921;-69
2022/10/27 09:25:41;;;;;;;2.47;1.27;;;24.40;47.70;;;;;;4875696;29;45449;-66
2022/10/27 09:28:16;;;;;;;2.70;1.50;;;24.40;47.60;;;;;;4853876;29;45257;-65
2022/10/27 09:30:42;;;;;;;2.28;1.25;;;24.50;47.60;;;;;;4874782;29;45495;-65
2022/10/27 09:33:13;;;;;;;1.80;1.20;;;24.50;47.60;;;;;;4866367;29;45441;-67
2022/10/27 09:35:38;;;;;;;2.30;1.33;;;24.60;47.50;;;;;;4878531;29;45121;-67
2022/10/27 09:38:04;;;;;;;5.95;1.45;;;24.60;47.50;;;;;;4871110;29;45494;-64
2022/10/27 09:40:31;;;;;;;2.15;1.20;;;24.70;47.50;;;;;;4869055;29;45578;-63
2022/10/27 09:42:57;;;;;;;2.17;1.20;;;24.70;47.40;;;;;;4871226;29;46069;-66
2022/10/27 09:45:26;;;;;;;2.15;1.58;;;24.80;47.50;;;;;;4874311;29;44839;-64
2022/10/27 09:47:57;;;;;;;3.42;1.30;;;24.80;47.30;;;;;;4872144;29;45185;-65
2022/10/27 09:50:35;;;;;;;1.85;1.40;;;24.80;47.20;;;;;;4875508;29;45212;-63
2022/10/27 09:53:01;;;;;;;2.40;1.30;;;24.90;47.00;;;;;;4877056;29;46069;-65
2022/10/27 09:55:51;;;;;;;2.42;1.10;;;24.90;47.30;;;;;;4870071;29;45916;-64
2022/10/27 09:58:17;;;;;;;2.47;1.30;;;25.00;47.10;;;;;;4856286;29;45564;-64
2022/10/27 10:00:43;;;;;;;1.65;1.05;;;25.00;47.20;;;;;;4857922;29;45416;-66
2022/10/27 10:03:27;;;;;;;2.88;1.40;;;25.10;47.20;;;;;;4869436;29;46189;-65
2022/10/27 10:06:00;;;;;;;1.13;0.98;;;25.10;46.70;;;;;;4876413;29;45474;-64
2022/10/27 10:08:27;;;;;;;1.98;1.13;;;25.20;47.00;;;;;;4872935;29;45624;-70
2022/10/27 10:11:00;;;;;;;3.60;1.10;;;25.20;47.10;;;;;;4877126;29;45372;-69
2022/10/27 10:13:30;;;;;;;2.40;1.30;;;25.30;47.10;;;;;;4868473;29;45521;-67
2022/10/27 10:16:06;;;;;;;2.25;1.10;;;25.30;47.10;;;;;;4857697;29;45453;-72
2022/10/27 10:18:32;;;;;;;1.98;1.35;;;25.40;46.90;;;;;;4869540;29;45917;-66
2022/10/27 10:21:02;;;;;;;1.95;1.20;;;25.30;47.10;;;;;;4870009;29;44871;-66
2022/10/27 10:23:32;;;;;;;1.40;1.25;;;25.30;47.10;;;;;;4862251;29;45055;-66
2022/10/27 10:25:58;;;;;;;2.05;1.23;;;25.20;47.20;;;;;;4879421;29;45078;-67
2022/10/27 10:28:37;;;;;;;2.58;1.30;;;25.10;47.20;;;;;;4882637;29;45288;-67
2022/10/27 10:31:04;;;;;;;1.60;1.00;;;25.10;47.20;;;;;;4865299;29;45312;-67
2022/10/27 10:33:41;;;;;;;1.65;1.05;;;25.10;47.40;;;;;;4862469;29;47903;-66
2022/10/27 10:36:16;;;;;;;2.13;1.30;;;25.00;47.30;;;;;;4883391;29;44864;-67
2022/10/27 10:38:41;;;;;;;2.53;1.10;;;24.90;47.40;;;;;;4873904;29;45287;-66
2022/10/27 10:41:11;;;;;;;3.90;1.23;;;24.90;47.70;;;;;;4851756;29;45352;-65
2022/10/27 10:43:37;;;;;;;2.10;1.23;;;24.90;47.70;;;;;;4871485;29;46730;-64
2022/10/27 10:46:03;;;;;;;2.08;1.27;;;24.80;47.80;;;;;;4872253;29;46809;-67
2022/10/27 10:48:31;;;;;;;4.22;1.30;;;24.80;47.80;;;;;;4878937;29;45676;-67
2022/10/27 10:50:57;;;;;;;2.30;1.10;;;24.80;47.90;;;;;;4869173;29;45311;-69
2022/10/27 10:53:31;;;;;;;2.03;1.10;;;24.80;47.90;;;;;;4856110;29;46971;-69
2022/10/27 10:56:00;;;;;;;2.20;1.30;;;24.70;47.90;;;;;;4872850;29;45351;-69
2022/10/27 10:58:26;;;;;;;3.00;1.20;;;24.70;48.00;;;;;;4875739;29;45278;-70
2022/10/27 11:00:56;;;;;;;1.90;1.20;;;24.60;48.40;;;;;;4882309;29;44952;-69
2022/10/27 11:03:22;;;;;;;2.58;1.45;;;24.60;48.10;;;;;;4875130;29;46450;-66
2022/10/27 11:05:56;;;;;;;1.63;0.93;;;24.60;48.10;;;;;;4867238;29;45263;-66
2022/10/27 11:08:22;;;;;;;;;;;24.60;48.10;;;;;;4851053;29;45243;-66
2022/10/27 11:10:47;;;;;;;3.80;1.50;;;24.50;48.10;;;;;;4884280;29;46205;-68
2022/10/27 11:13:16;;;;;;;2.30;1.10;;;24.50;48.30;;;;;;4858068;29;46155;-66
2022/10/27 11:16:02;;;;;;;2.65;1.40;;;24.50;48.30;;;;;;4883985;29;45296;-67
2022/10/27 11:18:42;;;;;;;2.25;1.00;;;24.50;48.30;;;;;;4864269;29;45316;-68
2022/10/27 11:21:20;;;;;;;2.28;1.17;;;24.40;48.20;;;;;;4873727;29;45288;-66
2022/10/27 11:23:47;;;;;;;2.00;1.10;;;24.40;48.40;;;;;;4875819;29;46136;-68
2022/10/27 11:26:21;;;;;;;2.25;1.15;;;24.40;48.40;;;;;;4860540;29;44543;-66
2022/10/27 11:28:59;;;;;;;1.77;0.90;;;24.40;48.40;;;;;;4882916;29;45342;-63
2022/10/27 11:31:43;;;;;;;1.60;1.25;;;24.40;48.40;;;;;;4872305;29;45370;-64
2022/10/27 11:34:20;;;;;;;2.90;1.58;;;24.40;48.50;;;;;;4876113;29;46204;-67
2022/10/27 11:36:52;;;;;;;2.05;1.05;;;24.30;48.50;;;;;;4876223;29;44780;-65
2022/10/27 11:39:26;;;;;;;4.82;1.50;;;24.30;48.60;;;;;;4878206;28;45335;-65
2022/10/27 11:42:00;;;;;;;1.83;1.40;;;24.30;48.60;;;;;;4881943;29;46154;-67
2022/10/27 11:45:09;;;;;;;3.25;1.25;;;24.30;48.70;;;;;;4859638;29;45341;-66
2022/10/27 11:48:06;;;;;;;3.75;1.10;;;24.20;48.60;;;;;;4873060;29;45710;-73
2022/10/27 11:50:41;;;;;;;1.83;1.30;;;24.20;48.70;;;;;;4876651;28;45351;-65
2022/10/27 11:53:07;;;;;;;1.83;1.30;;;24.20;48.70;;;;;;4849403;29;45350;-67
2022/10/27 11:56:00;;;;;;;1.67;1.00;;;24.20;48.80;;;;;;4862202;29;45861;-66
2022/10/27 11:58:55;;;;;;;2.63;1.27;;;24.20;48.80;;;;;;4825515;29;45319;-66
2022/10/27 12:01:40;;;;;;;1.40;0.95;;;24.20;48.90;;;;;;4876287;29;45365;-65
2022/10/27 12:04:28;;;;;;;1.73;1.20;;;24.10;48.90;;;;;;4879758;29;47152;-67
2022/10/27 12:07:09;;;;;;;2.83;1.20;;;24.10;49.00;;;;;;4877753;29;45427;-64
2022/10/27 12:09:48;;;;;;;1.70;1.10;;;24.10;49.00;;;;;;4879133;29;45298;-64
2022/10/27 12:12:19;;;;;;;1.30;1.13;;;24.10;49.00;;;;;;4868570;29;45449;-70
2022/10/27 12:15:03;;;;;;;1.10;1.00;;;24.10;49.10;;;;;;4861233;29;45217;-69
2022/10/27 12:17:42;;;;;;;1.80;1.33;;;24.10;49.10;;;;;;4868044;29;45954;-66
2022/10/27 12:20:10;;;;;;;2.05;1.13;;;24.10;49.20;;;;;;4873009;29;45232;-67
2022/10/27 12:22:42;;;;;;;2.13;1.20;;;24.00;49.10;;;;;;4878689;29;44759;-67
2022/10/27 12:25:21;;;;;;;2.75;1.23;;;24.00;49.10;;;;;;4857846;29;45323;-70
2022/10/27 12:27:48;;;;;;;2.15;1.15;;;24.00;49.20;;;;;;4877573;29;47305;-68
2022/10/27 12:30:16;;;;;;;2.65;1.40;;;24.00;49.20;;;;;;4866961;29;45610;-67
2022/10/27 12:32:43;;;;;;;3.03;1.55;;;24.00;49.30;;;;;;4870787;29;45339;-69
2022/10/27 12:35:14;;;;;;;3.35;1.42;;;24.00;49.30;;;;;;4878400;29;45494;-69
2022/10/27 12:37:47;;;;;;;3.53;1.45;;;23.90;49.30;;;;;;4875106;29;46193;-69
2022/10/27 12:40:31;;;;;;;2.22;1.10;;;23.90;49.30;;;;;;4870182;29;45214;-65
2022/10/27 12:43:10;;;;;;;2.72;1.10;;;23.90;49.40;;;;;;4876894;29;45331;-67
2022/10/27 12:45:53;;;;;;;2.03;1.20;;;23.90;49.50;;;;;;4876788;29;44790;-68
2022/10/27 12:48:40;;;;;;;2.60;1.15;;;23.90;49.50;;;;;;4870962;29;46190;-71
2022/10/27 12:51:27;;;;;;;1.73;0.98;;;23.90;49.50;;;;;;4863983;29;46967;-69
2022/10/27 12:54:11;;;;;;;2.95;0.77;;;23.90;49.60;;;;;;4876061;29;45454;-66
2022/10/27 12:56:42;;;;;;;4.10;1.10;;;23.90;49.60;;;;;;4860095;29;45727;-68
2022/10/27 12:59:31;;;;;;;2.30;1.17;;;23.80;49.50;;;;;;4847070;29;46231;-67
2022/10/27 13:02:01;;;;;;;1.80;1.20;;;23.90;49.70;;;;;;4874616;28;44889;-72
2022/10/27 13:04:38;;;;;;;2.65;1.58;;;23.80;49.70;;;;;;4863729;29;44752;-68
2022/10/27 13:07:15;;;;;;;1.48;1.10;;;23.80;49.70;;;;;;4875711;29;45147;-66
2022/10/27 13:10:22;;;;;;;4.10;1.50;;;23.80;49.70;;;;;;4876955;29;46041;-65
2022/10/27 13:12:55;;;;;;;2.17;1.33;;;23.80;49.80;;;;;;4854311;28;45948;-61
2022/10/27 13:15:29;;;;;;;1.98;1.20;;;23.80;49.80;;;;;;4870427;29;44953;-63
2022/10/27 13:18:13;;;;;;;3.35;1.50;;;23.80;49.80;;;;;;4874764;29;45150;-60
2022/10/27 13:20:57;;;;;;;1.42;1.10;;;23.80;49.90;;;;;;4868198;29;46111;-67
2022/10/27 13:23:43;;;;;;;4.22;1.35;;;23.80;49.90;;;;;;4883364;29;45240;-67
2022/10/27 13:26:18;;;;;;;2.88;1.10;;;23.80;50.00;;;;;;4871430;29;45323;-66
2022/10/27 13:29:02;;;;;;;1.70;1.10;;;23.80;50.00;;;;;;4878599;29;45651;-70
2022/10/27 13:31:28;;;;;;;1.92;1.20;;;23.80;50.10;;;;;;4847558;29;47434;-65
2022/10/27 13:33:59;;;;;;;3.88;0.90;;;23.70;50.00;;;;;;4881191;29;45359;-63
2022/10/27 13:36:26;;;;;;;1.02;0.90;;;23.70;50.10;;;;;;4880550;29;45333;-63
2022/10/27 13:39:12;;;;;;;3.10;1.30;;;23.70;50.10;;;;;;4856336;29;45780;-66
2022/10/27 13:42:02;;;;;;;5.00;1.13;;;23.70;50.20;;;;;;4857382;29;46115;-66
2022/10/27 13:44:28;;;;;;;1.63;1.13;;;23.70;50.20;;;;;;4876212;29;44811;-67
2022/10/27 13:47:03;;;;;;;2.95;1.27;;;23.70;50.10;;;;;;4877535;29;45352;-67
2022/10/27 13:49:40;;;;;;;1.48;1.20;;;23.70;50.20;;;;;;4878627;29;45625;-69
2022/10/27 13:52:16;;;;;;;1.95;1.15;;;23.70;50.20;;;;;;4877105;29;46067;-65
2022/10/27 13:54:47;;;;;;;1.70;1.23;;;23.70;50.30;;;;;;4881177;29;45350;-66
2022/10/27 13:57:54;;;;;;;1.90;1.17;;;23.70;50.30;;;;;;4876768;29;45516;-65
2022/10/27 14:00:27;;;;;;;2.75;1.27;;;23.70;50.40;;;;;;4874986;29;45457;-65
2022/10/27 14:03:31;;;;;;;2.42;1.40;;;23.70;50.30;;;;;;4863219;29;46289;-64
2022/10/27 14:05:57;;;;;;;3.25;1.20;;;23.70;50.40;;;;;;4873744;29;45612;-67
2022/10/27 14:08:25;;;;;;;2.40;1.20;;;23.60;50.30;;;;;;4882970;29;45380;-68
2022/10/27 14:10:52;;;;;;;2.42;1.30;;;23.60;50.30;;;;;;4874912;29;45325;-65
2022/10/27 14:13:23;;;;;;;2.45;1.17;;;23.60;50.40;;;;;;4860053;29;45320;-68
2022/10/27 14:15:50;;;;;;;1.92;1.20;;;23.60;50.40;;;;;;4876766;29;45349;-66
2022/10/27 14:18:33;;;;;;;1.90;1.30;;;23.60;50.40;;;;;;4856177;29;45228;-65
2022/10/27 14:21:28;;;;;;;2.40;1.20;;;23.60;50.60;;;;;;4864067;29;45680;-69
2022/10/27 14:23:53;;;;;;;2.20;1.17;;;23.60;50.60;;;;;;4880401;29;45575;-65
2022/10/27 14:26:35;;;;;;;5.35;1.30;;;23.60;50.60;;;;;;4854222;29;45885;-65
2022/10/27 14:29:00;;;;;;;2.08;1.08;;;23.60;50.60;;;;;;4864706;29;45482;-63
2022/10/27 14:31:26;;;;;;;1.42;1.00;;;23.60;50.60;;;;;;4880401;29;45485;-64
2022/10/27 14:33:52;;;;;;;2.88;1.20;;;23.60;50.70;;;;;;4864478;29;45511;-65
2022/10/27 14:36:30;;;;;;;3.47;1.13;;;23.60;50.60;;;;;;4887774;29;45309;-64
2022/10/27 14:39:09;;;;;;;3.22;1.33;;;23.50;50.60;;;;;;4881284;29;44738;-64
2022/10/27 14:41:36;;;;;;;2.60;1.20;;;23.60;50.70;;;;;;4878560;29;45310;-64
2022/10/27 14:44:03;;;;;;;3.33;1.17;;;23.60;50.70;;;;;;4871132;29;47042;-64
2022/10/27 14:46:33;;;;;;;3.25;1.27;;;23.50;50.60;;;;;;4878935;29;45154;-65
2022/10/27 14:49:01;;;;;;;2.00;1.27;;;23.50;50.60;;;;;;4850183;29;45090;-62
2022/10/27 14:51:26;;;;;;;4.50;1.15;;;23.50;50.70;;;;;;4878335;29;45552;-64
2022/10/27 14:53:52;;;;;;;1.00;0.90;;;23.50;50.70;;;;;;4880469;29;45355;-64
2022/10/27 14:56:25;;;;;;;1.85;1.10;;;23.50;50.70;;;;;;4891997;28;44699;-64
2022/10/27 14:58:55;;;;;;;1.88;1.25;;;23.50;50.70;;;;;;4880524;29;44933;-63
2022/10/27 15:01:35;;;;;;;2.60;1.05;;;23.50;50.80;;;;;;4872017;29;45272;-64
2022/10/27 15:04:38;;;;;;;3.83;1.60;;;23.50;50.90;;;;;;4888919;28;46086;-64
2022/10/27 15:07:03;;;;;;;1.67;1.00;;;23.50;50.90;;;;;;4872676;29;44682;-65
2022/10/27 15:09:33;;;;;;;2.65;1.40;;;23.50;50.80;;;;;;4880704;29;44946;-63
2022/10/27 15:12:04;;;;;;;2.15;1.33;;;23.50;50.90;;;;;;4869717;29;45106;-64
2022/10/27 15:14:30;;;;;;;1.90;1.10;;;23.50;50.90;;;;;;4858259;29;46159;-64
2022/10/27 15:16:56;;;;;;;2.50;1.48;;;23.50;50.90;;;;;;4862498;29;45449;-64
2022/10/27 15:19:21;;;;;;;1.92;1.30;;;23.50;50.90;;;;;;4878912;29;45177;-64
2022/10/27 15:21:47;;;;;;;1.67;1.20;;;23.50;50.90;;;;;;4860560;29;45272;-64
2022/10/27 15:24:15;;;;;;;2.22;1.27;;;23.50;50.90;;;;;;4854616;29;46331;-64
2022/10/27 15:26:41;;;;;;;1.85;1.10;;;23.50;50.90;;;;;;4886330;29;46403;-65
2022/10/27 15:29:13;;;;;;;3.03;1.27;;;23.50;50.90;;;;;;4885581;29;44860;-66
2022/10/27 15:31:39;;;;;;;2.20;1.30;;;23.50;50.90;;;;;;4876915;29;45004;-64
2022/10/27 15:34:06;;;;;;;1.42;1.10;;;23.50;50.90;;;;;;4872442;29;46069;-68
2022/10/27 15:36:32;;;;;;;2.20;1.17;;;23.50;50.90;;;;;;4885028;29;44662;-65
2022/10/27 15:38:57;;;;;;;2.40;1.10;;;23.50;51.00;;;;;;4871516;29;45222;-68
2022/10/27 15:41:27;;;;;;;4.40;1.20;;;23.50;51.00;;;;;;4855787;29;45571;-68
2022/10/27 15:44:17;;;;;;;2.90;1.23;;;23.50;51.00;;;;;;4898689;28;44903;-64
2022/10/27 15:46:42;;;;;;;2.08;1.10;;;23.50;51.20;;;;;;4860844;29;45356;-64
2022/10/27 15:49:30;;;;;;;2.75;1.50;;;23.50;51.00;;;;;;4859798;29;45506;-63
2022/10/27 15:52:01;;;;;;;1.38;1.20;;;23.40;51.00;;;;;;4875134;29;45009;-63
2022/10/27 15:54:35;;;;;;;2.17;1.20;;;23.50;51.00;;;;;;4875118;29;46207;-64
2022/10/27 15:57:02;;;;;;;2.10;1.17;;;23.50;51.10;;;;;;4876045;29;45737;-64
2022/10/27 15:59:28;;;;;;;1.77;1.20;;;23.40;51.00;;;;;;4880053;29;45666;-67
2022/10/27 16:01:59;;;;;;;2.10;1.20;;;23.40;51.10;;;;;;4880017;29;45165;-63
2022/10/27 16:04:29;;;;;;;3.38;1.02;;;23.40;51.10;;;;;;4873775;29;45451;-63